sensor_id;sensor_type;location;lat;lon;timestamp;temperature;humidity
4433;DHT22;2229;48.708;9.706;2022-08-19T00:00:35;21.20;99.20
4433;DHT22;2229;48.708;9.706;2022-08-19T00:03:05;21.20;99.50
4433;DHT22;2229;48.708;9.706;2022-08-19T00:05:33;21.20;99.90
4433;DHT22;2229;48.708;9.706;2022-08-19T00:08:01;21.10;99.90
4433;DHT22;2229;48.708;9.706;2022-08-19T00:10:28;21.10;99.90
4433;DHT22;2229;48.708;9.706;2022-08-19T00:12:55;21.00;99.90
4433;DHT22;2229;48.708;9.706;2022-08-19T00:15:23;21.00;99.90
4433;DHT22;2229;48.708;9.706;2022-08-19T00:17:50;21.00;99.90
4433;DHT22;2229;48.708;9.706;2022-08-19T00:20:20;21.00;99.90
4433;DHT22;2229;48.708;9.706;2022-08-19T00:22:48;21.00;99.90
4433;DHT22;2229;48.708;9.706;2022-08-19T00:25:16;21.00;99.90
4433;DHT22;2229;48.708;9.706;2022-08-19T00:27:44;20.90;99.90
4433;DHT22;2229;48.708;9.706;2022-08-19T00:30:12;20.90;99.90
4433;DHT22;2229;48.708;9.706;2022-08-19T00:32:39;20.90;99.90
4433;DHT22;2229;48.708;9.706;2022-08-19T00:35:07;20.80;99.90
4433;DHT22;2229;48.708;9.706;2022-08-19T00:37:37;20.90;99.90
4433;DHT22;2229;48.708;9.706;2022-08-19T00:40:10;20.80;99.90
4433;DHT22;2229;48.708;9.706;2022-08-19T00:42:38;20.80;99.90
4433;DHT22;2229;48.708;9.706;2022-08-19T00:45:12;20.80;99.90
4433;DHT22;2229;48.708;9.706;2022-08-19T00:47:40;20.80;99.90
4433;DHT22;2229;48.708;9.706;2022-08-19T00:50:08;20.80;99.90
4433;DHT22;2229;48.708;9.706;2022-08-19T00:52:39;20.80;99.90
4433;DHT22;2229;48.708;9.706;2022-08-19T00:55:13;20.80;99.90
4433;DHT22;2229;48.708;9.706;2022-08-19T00:57:46;20.80;99.90
4433;DHT22;2229;48.708;9.706;2022-08-19T01:00:17;20.70;99.90
4433;DHT22;2229;48.708;9.706;2022-08-19T01:02:46;20.70;99.90
4433;DHT22;2229;48.708;9.706;2022-08-19T01:05:17;20.60;99.90
4433;DHT22;2229;48.708;9.706;2022-08-19T01:07:48;20.70;99.90
4433;DHT22;2229;48.708;9.706;2022-08-19T01:10:19;20.60;99.90
4433;DHT22;2229;48.708;9.706;2022-08-19T01:12:48;20.60;99.90
4433;DHT22;2229;48.708;9.706;2022-08-19T01:15:18;20.60;99.90
4433;DHT22;2229;48.708;9.706;2022-08-19T01:17:47;20.50;99.90
4433;DHT22;2229;48.708;9.706;2022-08-19T01:20:17;20.50;99.90
4433;DHT22;2229;48.708;9.706;2022-08-19T01:22:50;20.40;99.90
4433;DHT22;2229;48.708;9.706;2022-08-19T01:25:20;20.40;99.90
4433;DHT22;2229;48.708;9.706;2022-08-19T01:27:49;20.30;99.90
4433;DHT22;2229;48.708;9.706;2022-08-19T01:30:19;20.30;99.90
4433;DHT22;2229;48.708;9.706;2022-08-19T01:32:48;20.20;99.90
4433;DHT22;2229;48.708;9.706;2022-08-19T01:35:16;20.30;99.90
4433;DHT22;2229;48.708;9.706;2022-08-19T01:37:47;20.30;99.90
4433;DHT22;2229;48.708;9.706;2022-08-19T01:40:14;20.30;99.90
4433;DHT22;2229;48.708;9.706;2022-08-19T01:42:42;20.30;99.90
4433;DHT22;2229;48.708;9.706;2022-08-19T01:45:10;20.20;99.90
4433;DHT22;2229;48.708;9.706;2022-08-19T01:47:37;20.20;99.90
4433;DHT22;2229;48.708;9.706;2022-08-19T01:50:06;20.20;99.90
4433;DHT22;2229;48.708;9.706;2022-08-19T01:52:34;20.20;99.90
4433;DHT22;2229;48.708;9.706;2022-08-19T01:55:04;20.20;99.90
4433;DHT22;2229;48.708;9.706;2022-08-19T01:57:32;20.20;99.90
4433;DHT22;2229;48.708;9.706;2022-08-19T02:00:00;20.10;99.90
4433;DHT22;2229;48.708;9.706;2022-08-19T02:02:37;20.10;99.90
4433;DHT22;2229;48.708;9.706;2022-08-19T02:05:05;20.10;99.90
4433;DHT22;2229;48.708;9.706;2022-08-19T02:07:34;20.10;99.90
4433;DHT22;2229;48.708;9.706;2022-08-19T02:10:03;20.10;99.90
4433;DHT22;2229;48.708;9.706;2022-08-19T02:12:31;20.00;99.90
4433;DHT22;2229;48.708;9.706;2022-08-19T02:14:59;20.00;99.90
4433;DHT22;2229;48.708;9.706;2022-08-19T02:17:27;20.00;99.90
4433;DHT22;2229;48.708;9.706;2022-08-19T02:19:55;20.00;99.90
4433;DHT22;2229;48.708;9.706;2022-08-19T02:22:22;19.90;99.90
4433;DHT22;2229;48.708;9.706;2022-08-19T02:24:51;19.90;99.90
4433;DHT22;2229;48.708;9.706;2022-08-19T02:27:19;19.90;99.90
4433;DHT22;2229;48.708;9.706;2022-08-19T02:29:48;19.90;99.90
4433;DHT22;2229;48.708;9.706;2022-08-19T02:32:16;19.90;99.90
4433;DHT22;2229;48.708;9.706;2022-08-19T02:34:44;19.90;99.90
4433;DHT22;2229;48.708;9.706;2022-08-19T02:37:11;19.90;99.90
4433;DHT22;2229;48.708;9.706;2022-08-19T02:39:53;19.90;99.90
4433;DHT22;2229;48.708;9.706;2022-08-19T02:42:21;19.90;99.90
4433;DHT22;2229;48.708;9.706;2022-08-19T02:44:48;19.90;99.90
4433;DHT22;2229;48.708;9.706;2022-08-19T02:47:16;19.90;99.90
4433;DHT22;2229;48.708;9.706;2022-08-19T02:49:44;19.90;99.90
4433;DHT22;2229;48.708;9.706;2022-08-19T02:52:12;19.80;99.90
4433;DHT22;2229;48.708;9.706;2022-08-19T02:54:39;19.90;99.90
4433;DHT22;2229;48.708;9.706;2022-08-19T02:57:06;19.80;99.90
4433;DHT22;2229;48.708;9.706;2022-08-19T02:59:35;19.80;99.90
4433;DHT22;2229;48.708;9.706;2022-08-19T03:02:03;19.80;99.90
4433;DHT22;2229;48.708;9.706;2022-08-19T03:04:30;19.80;99.90
4433;DHT22;2229;48.708;9.706;2022-08-19T03:06:57;19.80;99.90
4433;DHT22;2229;48.708;9.706;2022-08-19T03:09:24;19.80;99.90
4433;DHT22;2229;48.708;9.706;2022-08-19T03:11:52;19.80;99.90
4433;DHT22;2229;48.708;9.706;2022-08-19T03:14:19;19.80;99.90
4433;DHT22;2229;48.708;9.706;2022-08-19T03:16:51;19.80;99.90
4433;DHT22;2229;48.708;9.706;2022-08-19T03:19:19;19.70;99.90
4433;DHT22;2229;48.708;9.706;2022-08-19T03:21:47;19.80;99.90
4433;DHT22;2229;48.708;9.706;2022-08-19T03:24:15;19.80;99.90
4433;DHT22;2229;48.708;9.706;2022-08-19T03:26:44;19.80;99.90
4433;DHT22;2229;48.708;9.706;2022-08-19T03:29:12;19.70;99.90
4433;DHT22;2229;48.708;9.706;2022-08-19T03:31:41;19.80;99.90
4433;DHT22;2229;48.708;9.706;2022-08-19T03:34:10;19.70;99.90
4433;DHT22;2229;48.708;9.706;2022-08-19T03:36:38;19.70;99.90
4433;DHT22;2229;48.708;9.706;2022-08-19T03:39:06;19.70;99.90
4433;DHT22;2229;48.708;9.706;2022-08-19T03:41:37;19.70;99.90
4433;DHT22;2229;48.708;9.706;2022-08-19T03:44:11;19.70;99.90
4433;DHT22;2229;48.708;9.706;2022-08-19T03:46:38;19.70;99.90
4433;DHT22;2229;48.708;9.706;2022-08-19T03:49:05;19.70;99.90
4433;DHT22;2229;48.708;9.706;2022-08-19T03:51:36;19.70;99.90
4433;DHT22;2229;48.708;9.706;2022-08-19T03:54:06;19.70;99.90
4433;DHT22;2229;48.708;9.706;2022-08-19T03:56:34;19.70;99.90
4433;DHT22;2229;48.708;9.706;2022-08-19T03:59:02;19.70;99.90
4433;DHT22;2229;48.708;9.706;2022-08-19T04:01:30;19.70;99.90
4433;DHT22;2229;48.708;9.706;2022-08-19T04:04:00;19.70;99.90
4433;DHT22;2229;48.708;9.706;2022-08-19T04:06:29;19.70;99.90
4433;DHT22;2229;48.708;9.706;2022-08-19T04:08:59;19.70;99.90
4433;DHT22;2229;48.708;9.706;2022-08-19T04:11:29;19.60;99.90
4433;DHT22;2229;48.708;9.706;2022-08-19T04:13:57;19.60;99.90
4433;DHT22;2229;48.708;9.706;2022-08-19T04:19:01;19.60;99.90
4433;DHT22;2229;48.708;9.706;2022-08-19T04:21:29;19.60;99.90
4433;DHT22;2229;48.708;9.706;2022-08-19T04:23:58;19.60;99.90
4433;DHT22;2229;48.708;9.706;2022-08-19T04:26:29;19.60;99.90
4433;DHT22;2229;48.708;9.706;2022-08-19T04:28:58;19.60;99.90
4433;DHT22;2229;48.708;9.706;2022-08-19T04:31:28;19.60;99.90
4433;DHT22;2229;48.708;9.706;2022-08-19T04:33:56;19.60;99.90
4433;DHT22;2229;48.708;9.706;2022-08-19T04:36:25;19.60;99.90
4433;DHT22;2229;48.708;9.706;2022-08-19T04:38:54;19.60;99.90
4433;DHT22;2229;48.708;9.706;2022-08-19T04:41:24;19.60;99.90
4433;DHT22;2229;48.708;9.706;2022-08-19T04:44:09;19.50;99.90
4433;DHT22;2229;48.708;9.706;2022-08-19T04:46:37;19.50;99.90
4433;DHT22;2229;48.708;9.706;2022-08-19T04:49:05;19.60;99.90
4433;DHT22;2229;48.708;9.706;2022-08-19T04:51:34;19.60;99.90
4433;DHT22;2229;48.708;9.706;2022-08-19T04:54:03;19.60;99.90
4433;DHT22;2229;48.708;9.706;2022-08-19T04:56:32;19.60;99.90
4433;DHT22;2229;48.708;9.706;2022-08-19T04:58:59;19.60;99.90
4433;DHT22;2229;48.708;9.706;2022-08-19T05:01:30;19.60;99.90
4433;DHT22;2229;48.708;9.706;2022-08-19T05:03:58;19.60;99.90
4433;DHT22;2229;48.708;9.706;2022-08-19T05:06:26;19.60;99.90
4433;DHT22;2229;48.708;9.706;2022-08-19T05:08:54;19.60;99.90
4433;DHT22;2229;48.708;9.706;2022-08-19T05:11:24;19.70;99.90
4433;DHT22;2229;48.708;9.706;2022-08-19T05:14:15;19.70;99.90
4433;DHT22;2229;48.708;9.706;2022-08-19T05:16:43;19.70;99.90
4433;DHT22;2229;48.708;9.706;2022-08-19T05:19:10;19.60;99.90
4433;DHT22;2229;48.708;9.706;2022-08-19T05:21:54;19.70;99.90
4433;DHT22;2229;48.708;9.706;2022-08-19T05:24:39;19.60;99.90
4433;DHT22;2229;48.708;9.706;2022-08-19T05:27:06;19.70;99.90
4433;DHT22;2229;48.708;9.706;2022-08-19T05:29:34;19.60;99.90
4433;DHT22;2229;48.708;9.706;2022-08-19T05:32:03;19.70;99.90
4433;DHT22;2229;48.708;9.706;2022-08-19T05:34:34;19.70;99.90
4433;DHT22;2229;48.708;9.706;2022-08-19T05:37:04;19.70;99.90
4433;DHT22;2229;48.708;9.706;2022-08-19T05:39:42;19.70;99.90
4433;DHT22;2229;48.708;9.706;2022-08-19T05:42:11;19.70;99.90
4433;DHT22;2229;48.708;9.706;2022-08-19T05:44:42;19.70;99.90
4433;DHT22;2229;48.708;9.706;2022-08-19T05:47:12;19.70;99.90
4433;DHT22;2229;48.708;9.706;2022-08-19T05:49:41;19.70;99.90
4433;DHT22;2229;48.708;9.706;2022-08-19T05:52:10;19.70;99.90
4433;DHT22;2229;48.708;9.706;2022-08-19T05:54:39;19.70;99.90
4433;DHT22;2229;48.708;9.706;2022-08-19T05:57:09;19.70;99.90
4433;DHT22;2229;48.708;9.706;2022-08-19T05:59:36;19.70;99.90
4433;DHT22;2229;48.708;9.706;2022-08-19T06:02:06;19.70;99.90
4433;DHT22;2229;48.708;9.706;2022-08-19T06:04:34;19.70;99.90
4433;DHT22;2229;48.708;9.706;2022-08-19T06:07:01;19.70;99.90
4433;DHT22;2229;48.708;9.706;2022-08-19T06:09:29;19.70;99.90
4433;DHT22;2229;48.708;9.706;2022-08-19T06:11:58;19.60;99.90
4433;DHT22;2229;48.708;9.706;2022-08-19T06:14:30;19.60;99.90
4433;DHT22;2229;48.708;9.706;2022-08-19T06:17:00;19.60;99.90
4433;DHT22;2229;48.708;9.706;2022-08-19T06:19:30;19.60;99.90
4433;DHT22;2229;48.708;9.706;2022-08-19T06:21:59;19.60;99.90
4433;DHT22;2229;48.708;9.706;2022-08-19T06:24:28;19.60;99.90
4433;DHT22;2229;48.708;9.706;2022-08-19T06:26:57;19.60;99.90
4433;DHT22;2229;48.708;9.706;2022-08-19T06:29:27;19.60;99.90
4433;DHT22;2229;48.708;9.706;2022-08-19T06:31:59;19.60;99.90
4433;DHT22;2229;48.708;9.706;2022-08-19T06:34:29;19.60;99.90
4433;DHT22;2229;48.708;9.706;2022-08-19T06:36:59;19.60;99.90
4433;DHT22;2229;48.708;9.706;2022-08-19T06:39:29;19.60;99.90
4433;DHT22;2229;48.708;9.706;2022-08-19T06:41:59;19.60;99.90
4433;DHT22;2229;48.708;9.706;2022-08-19T06:44:31;19.60;99.90
4433;DHT22;2229;48.708;9.706;2022-08-19T06:47:01;19.60;99.90
4433;DHT22;2229;48.708;9.706;2022-08-19T06:49:30;19.60;99.90
4433;DHT22;2229;48.708;9.706;2022-08-19T06:51:58;19.60;99.90
4433;DHT22;2229;48.708;9.706;2022-08-19T06:54:28;19.60;99.90
4433;DHT22;2229;48.708;9.706;2022-08-19T06:56:56;19.60;99.90
4433;DHT22;2229;48.708;9.706;2022-08-19T06:59:24;19.70;99.90
4433;DHT22;2229;48.708;9.706;2022-08-19T07:01:54;19.70;99.90
4433;DHT22;2229;48.708;9.706;2022-08-19T07:04:25;19.60;99.90
4433;DHT22;2229;48.708;9.706;2022-08-19T07:06:59;19.60;99.90
4433;DHT22;2229;48.708;9.706;2022-08-19T07:09:27;19.60;99.90
4433;DHT22;2229;48.708;9.706;2022-08-19T07:11:55;19.60;99.90
4433;DHT22;2229;48.708;9.706;2022-08-19T07:14:25;19.60;99.90
4433;DHT22;2229;48.708;9.706;2022-08-19T07:17:11;19.60;99.90
4433;DHT22;2229;48.708;9.706;2022-08-19T07:19:39;19.60;99.90
4433;DHT22;2229;48.708;9.706;2022-08-19T07:22:09;19.60;99.90
4433;DHT22;2229;48.708;9.706;2022-08-19T07:24:37;19.50;99.90
4433;DHT22;2229;48.708;9.706;2022-08-19T07:27:05;19.60;99.90
4433;DHT22;2229;48.708;9.706;2022-08-19T07:29:34;19.60;99.90
4433;DHT22;2229;48.708;9.706;2022-08-19T07:32:03;19.50;99.90
4433;DHT22;2229;48.708;9.706;2022-08-19T07:34:32;19.60;99.90
4433;DHT22;2229;48.708;9.706;2022-08-19T07:37:03;19.50;99.90
4433;DHT22;2229;48.708;9.706;2022-08-19T07:39:35;19.50;99.90
4433;DHT22;2229;48.708;9.706;2022-08-19T07:42:07;19.50;99.90
4433;DHT22;2229;48.708;9.706;2022-08-19T07:44:35;19.50;99.90
4433;DHT22;2229;48.708;9.706;2022-08-19T07:47:04;19.40;99.90
4433;DHT22;2229;48.708;9.706;2022-08-19T07:49:32;19.40;99.90
4433;DHT22;2229;48.708;9.706;2022-08-19T07:52:04;19.40;99.90
4433;DHT22;2229;48.708;9.706;2022-08-19T07:54:36;19.40;99.90
4433;DHT22;2229;48.708;9.706;2022-08-19T07:57:04;19.40;99.90
4433;DHT22;2229;48.708;9.706;2022-08-19T07:59:32;19.40;99.90
4433;DHT22;2229;48.708;9.706;2022-08-19T08:01:59;19.40;99.90
4433;DHT22;2229;48.708;9.706;2022-08-19T08:04:28;19.40;99.90
4433;DHT22;2229;48.708;9.706;2022-08-19T08:07:14;19.40;99.90
4433;DHT22;2229;48.708;9.706;2022-08-19T08:10:00;19.40;99.90
4433;DHT22;2229;48.708;9.706;2022-08-19T08:12:31;19.40;99.90
4433;DHT22;2229;48.708;9.706;2022-08-19T08:15:27;19.40;99.90
4433;DHT22;2229;48.708;9.706;2022-08-19T08:17:55;19.40;99.90
4433;DHT22;2229;48.708;9.706;2022-08-19T08:20:35;19.40;99.90
4433;DHT22;2229;48.708;9.706;2022-08-19T08:23:02;19.40;99.90
4433;DHT22;2229;48.708;9.706;2022-08-19T08:25:49;19.40;99.90
4433;DHT22;2229;48.708;9.706;2022-08-19T08:28:16;19.40;99.90
4433;DHT22;2229;48.708;9.706;2022-08-19T08:30:44;19.40;99.90
4433;DHT22;2229;48.708;9.706;2022-08-19T08:33:13;19.40;99.90
4433;DHT22;2229;48.708;9.706;2022-08-19T08:35:41;19.40;99.90
4433;DHT22;2229;48.708;9.706;2022-08-19T08:38:08;19.40;99.90
4433;DHT22;2229;48.708;9.706;2022-08-19T08:40:42;19.40;99.90
4433;DHT22;2229;48.708;9.706;2022-08-19T08:43:20;19.50;99.90
4433;DHT22;2229;48.708;9.706;2022-08-19T08:45:53;19.40;99.90
4433;DHT22;2229;48.708;9.706;2022-08-19T08:48:24;19.40;99.90
4433;DHT22;2229;48.708;9.706;2022-08-19T08:50:54;19.40;99.90
4433;DHT22;2229;48.708;9.706;2022-08-19T08:53:24;19.40;99.90
4433;DHT22;2229;48.708;9.706;2022-08-19T08:55:54;19.40;99.90
4433;DHT22;2229;48.708;9.706;2022-08-19T08:58:28;19.40;99.90
4433;DHT22;2229;48.708;9.706;2022-08-19T09:00:56;19.50;99.90
4433;DHT22;2229;48.708;9.706;2022-08-19T09:03:26;19.50;99.90
4433;DHT22;2229;48.708;9.706;2022-08-19T09:05:59;19.50;99.90
4433;DHT22;2229;48.708;9.706;2022-08-19T09:08:40;19.50;99.90
4433;DHT22;2229;48.708;9.706;2022-08-19T09:11:13;19.50;99.90
4433;DHT22;2229;48.708;9.706;2022-08-19T09:14:02;19.50;99.90
4433;DHT22;2229;48.708;9.706;2022-08-19T09:16:31;19.50;99.90
4433;DHT22;2229;48.708;9.706;2022-08-19T09:19:02;19.50;99.90
4433;DHT22;2229;48.708;9.706;2022-08-19T09:21:29;19.50;99.90
4433;DHT22;2229;48.708;9.706;2022-08-19T09:23:56;19.60;99.90
4433;DHT22;2229;48.708;9.706;2022-08-19T09:26:24;19.50;99.90
4433;DHT22;2229;48.708;9.706;2022-08-19T09:28:53;19.60;99.90
4433;DHT22;2229;48.708;9.706;2022-08-19T09:31:24;19.50;99.90
4433;DHT22;2229;48.708;9.706;2022-08-19T09:33:52;19.60;99.90
4433;DHT22;2229;48.708;9.706;2022-08-19T09:36:23;19.60;99.90
4433;DHT22;2229;48.708;9.706;2022-08-19T09:38:55;19.70;99.90
4433;DHT22;2229;48.708;9.706;2022-08-19T09:41:24;19.70;99.90
4433;DHT22;2229;48.708;9.706;2022-08-19T09:43:54;19.70;99.90
4433;DHT22;2229;48.708;9.706;2022-08-19T09:46:24;19.80;99.90
4433;DHT22;2229;48.708;9.706;2022-08-19T09:48:52;19.80;99.90
4433;DHT22;2229;48.708;9.706;2022-08-19T09:51:22;19.80;99.90
4433;DHT22;2229;48.708;9.706;2022-08-19T09:53:51;19.80;99.90
4433;DHT22;2229;48.708;9.706;2022-08-19T09:56:21;19.80;99.90
4433;DHT22;2229;48.708;9.706;2022-08-19T09:58:48;19.80;99.90
4433;DHT22;2229;48.708;9.706;2022-08-19T10:01:19;19.80;99.90
4433;DHT22;2229;48.708;9.706;2022-08-19T10:03:49;19.90;99.90
4433;DHT22;2229;48.708;9.706;2022-08-19T10:06:17;19.90;99.90
4433;DHT22;2229;48.708;9.706;2022-08-19T10:08:45;19.90;99.90
4433;DHT22;2229;48.708;9.706;2022-08-19T10:11:13;19.90;99.90
4433;DHT22;2229;48.708;9.706;2022-08-19T10:13:43;19.90;99.90
4433;DHT22;2229;48.708;9.706;2022-08-19T10:16:13;19.90;99.90
4433;DHT22;2229;48.708;9.706;2022-08-19T10:18:43;19.90;99.90
4433;DHT22;2229;48.708;9.706;2022-08-19T10:21:12;19.90;99.90
4433;DHT22;2229;48.708;9.706;2022-08-19T10:23:42;19.90;99.90
4433;DHT22;2229;48.708;9.706;2022-08-19T10:26:12;19.90;99.90
4433;DHT22;2229;48.708;9.706;2022-08-19T10:28:40;19.90;99.90
4433;DHT22;2229;48.708;9.706;2022-08-19T10:31:10;19.90;99.90
4433;DHT22;2229;48.708;9.706;2022-08-19T10:33:38;20.00;99.90
4433;DHT22;2229;48.708;9.706;2022-08-19T10:36:10;19.90;99.90
4433;DHT22;2229;48.708;9.706;2022-08-19T10:38:38;20.00;99.90
4433;DHT22;2229;48.708;9.706;2022-08-19T10:41:12;20.00;99.90
4433;DHT22;2229;48.708;9.706;2022-08-19T10:43:43;20.00;99.90
4433;DHT22;2229;48.708;9.706;2022-08-19T10:46:12;19.90;99.90
4433;DHT22;2229;48.708;9.706;2022-08-19T10:48:40;19.90;99.90
4433;DHT22;2229;48.708;9.706;2022-08-19T10:51:09;19.90;99.90
4433;DHT22;2229;48.708;9.706;2022-08-19T10:54:03;19.90;99.90
4433;DHT22;2229;48.708;9.706;2022-08-19T10:56:34;19.80;99.90
4433;DHT22;2229;48.708;9.706;2022-08-19T10:59:20;19.80;99.90
4433;DHT22;2229;48.708;9.706;2022-08-19T11:01:49;19.80;99.90
4433;DHT22;2229;48.708;9.706;2022-08-19T11:04:17;19.70;99.90
4433;DHT22;2229;48.708;9.706;2022-08-19T11:06:47;19.70;99.90
4433;DHT22;2229;48.708;9.706;2022-08-19T11:09:15;19.70;99.90
4433;DHT22;2229;48.708;9.706;2022-08-19T11:11:44;19.70;99.90
4433;DHT22;2229;48.708;9.706;2022-08-19T11:14:13;19.60;99.90
4433;DHT22;2229;48.708;9.706;2022-08-19T11:16:44;19.60;99.90
4433;DHT22;2229;48.708;9.706;2022-08-19T11:19:11;19.60;99.90
4433;DHT22;2229;48.708;9.706;2022-08-19T11:21:41;19.60;99.90
4433;DHT22;2229;48.708;9.706;2022-08-19T11:24:13;19.60;99.90
4433;DHT22;2229;48.708;9.706;2022-08-19T11:26:47;19.60;99.90
4433;DHT22;2229;48.708;9.706;2022-08-19T11:29:17;19.60;99.90
4433;DHT22;2229;48.708;9.706;2022-08-19T11:31:46;19.60;99.90
4433;DHT22;2229;48.708;9.706;2022-08-19T11:34:17;19.60;99.90
4433;DHT22;2229;48.708;9.706;2022-08-19T11:36:48;19.60;99.90
4433;DHT22;2229;48.708;9.706;2022-08-19T11:39:21;19.60;99.90
4433;DHT22;2229;48.708;9.706;2022-08-19T11:41:51;19.60;99.90
4433;DHT22;2229;48.708;9.706;2022-08-19T11:44:18;19.60;99.90
4433;DHT22;2229;48.708;9.706;2022-08-19T11:46:45;19.50;99.90
4433;DHT22;2229;48.708;9.706;2022-08-19T11:49:13;19.60;99.90
4433;DHT22;2229;48.708;9.706;2022-08-19T11:51:42;19.50;99.90
4433;DHT22;2229;48.708;9.706;2022-08-19T11:54:11;19.50;99.90
4433;DHT22;2229;48.708;9.706;2022-08-19T11:56:40;19.50;99.90
4433;DHT22;2229;48.708;9.706;2022-08-19T11:59:08;19.50;99.90
4433;DHT22;2229;48.708;9.706;2022-08-19T12:01:35;19.60;99.90
4433;DHT22;2229;48.708;9.706;2022-08-19T12:04:03;19.50;99.90
4433;DHT22;2229;48.708;9.706;2022-08-19T12:06:36;19.60;99.90
4433;DHT22;2229;48.708;9.706;2022-08-19T12:09:06;19.60;99.90
4433;DHT22;2229;48.708;9.706;2022-08-19T12:11:34;19.60;99.90
4433;DHT22;2229;48.708;9.706;2022-08-19T12:14:04;19.60;99.90
4433;DHT22;2229;48.708;9.706;2022-08-19T12:16:31;19.60;99.90
4433;DHT22;2229;48.708;9.706;2022-08-19T12:18:59;19.50;99.90
4433;DHT22;2229;48.708;9.706;2022-08-19T12:21:31;19.60;99.90
4433;DHT22;2229;48.708;9.706;2022-08-19T12:23:59;19.60;99.90
4433;DHT22;2229;48.708;9.706;2022-08-19T12:26:29;19.50;99.90
4433;DHT22;2229;48.708;9.706;2022-08-19T12:28:57;19.50;99.90
4433;DHT22;2229;48.708;9.706;2022-08-19T12:31:27;19.50;99.90
4433;DHT22;2229;48.708;9.706;2022-08-19T12:33:55;19.50;99.90
4433;DHT22;2229;48.708;9.706;2022-08-19T12:36:22;19.50;99.90
4433;DHT22;2229;48.708;9.706;2022-08-19T12:38:51;19.50;99.90
4433;DHT22;2229;48.708;9.706;2022-08-19T12:41:19;19.50;99.90
4433;DHT22;2229;48.708;9.706;2022-08-19T12:43:51;19.50;99.90
4433;DHT22;2229;48.708;9.706;2022-08-19T12:46:19;19.60;99.90
4433;DHT22;2229;48.708;9.706;2022-08-19T12:48:48;19.50;99.90
4433;DHT22;2229;48.708;9.706;2022-08-19T12:51:18;19.50;99.90
4433;DHT22;2229;48.708;9.706;2022-08-19T12:53:46;19.50;99.90
4433;DHT22;2229;48.708;9.706;2022-08-19T12:56:15;19.50;99.90
4433;DHT22;2229;48.708;9.706;2022-08-19T12:58:44;19.50;99.90
4433;DHT22;2229;48.708;9.706;2022-08-19T13:01:13;19.50;99.90
4433;DHT22;2229;48.708;9.706;2022-08-19T13:03:40;19.50;99.90
4433;DHT22;2229;48.708;9.706;2022-08-19T13:06:10;19.60;99.90
4433;DHT22;2229;48.708;9.706;2022-08-19T13:08:37;19.50;99.90
4433;DHT22;2229;48.708;9.706;2022-08-19T13:11:10;19.50;99.90
4433;DHT22;2229;48.708;9.706;2022-08-19T13:13:40;19.50;99.90
4433;DHT22;2229;48.708;9.706;2022-08-19T13:16:08;19.50;99.90
4433;DHT22;2229;48.708;9.706;2022-08-19T13:18:37;19.60;99.90
4433;DHT22;2229;48.708;9.706;2022-08-19T13:21:06;19.50;99.90
4433;DHT22;2229;48.708;9.706;2022-08-19T13:23:35;19.50;99.90
4433;DHT22;2229;48.708;9.706;2022-08-19T13:26:07;19.50;99.90
4433;DHT22;2229;48.708;9.706;2022-08-19T13:28:35;19.50;99.90
4433;DHT22;2229;48.708;9.706;2022-08-19T13:31:22;19.50;99.90
4433;DHT22;2229;48.708;9.706;2022-08-19T13:34:07;19.50;99.90
4433;DHT22;2229;48.708;9.706;2022-08-19T13:36:35;19.50;99.90
4433;DHT22;2229;48.708;9.706;2022-08-19T13:39:05;19.50;99.90
4433;DHT22;2229;48.708;9.706;2022-08-19T13:41:33;19.50;99.90
4433;DHT22;2229;48.708;9.706;2022-08-19T13:44:01;19.50;99.90
4433;DHT22;2229;48.708;9.706;2022-08-19T13:46:28;19.50;99.90
4433;DHT22;2229;48.708;9.706;2022-08-19T13:48:56;19.50;99.90
4433;DHT22;2229;48.708;9.706;2022-08-19T13:51:24;19.50;99.90
4433;DHT22;2229;48.708;9.706;2022-08-19T13:53:51;19.50;99.90
4433;DHT22;2229;48.708;9.706;2022-08-19T13:56:20;19.50;99.90
4433;DHT22;2229;48.708;9.706;2022-08-19T13:58:48;19.50;99.90
4433;DHT22;2229;48.708;9.706;2022-08-19T14:01:19;19.60;99.90
4433;DHT22;2229;48.708;9.706;2022-08-19T14:03:47;19.60;99.90
4433;DHT22;2229;48.708;9.706;2022-08-19T14:06:14;19.60;99.90
4433;DHT22;2229;48.708;9.706;2022-08-19T14:08:42;19.60;99.90
4433;DHT22;2229;48.708;9.706;2022-08-19T14:11:10;19.60;99.90
4433;DHT22;2229;48.708;9.706;2022-08-19T14:13:39;19.60;99.90
4433;DHT22;2229;48.708;9.706;2022-08-19T14:16:08;19.60;99.90
4433;DHT22;2229;48.708;9.706;2022-08-19T14:18:35;19.60;99.90
4433;DHT22;2229;48.708;9.706;2022-08-19T14:21:03;19.60;99.90
4433;DHT22;2229;48.708;9.706;2022-08-19T14:23:31;19.60;99.90
4433;DHT22;2229;48.708;9.706;2022-08-19T14:26:06;19.60;99.90
4433;DHT22;2229;48.708;9.706;2022-08-19T14:28:34;19.60;99.90
4433;DHT22;2229;48.708;9.706;2022-08-19T14:31:03;19.60;99.90
4433;DHT22;2229;48.708;9.706;2022-08-19T14:33:30;19.60;99.90
4433;DHT22;2229;48.708;9.706;2022-08-19T14:35:58;19.60;99.90
4433;DHT22;2229;48.708;9.706;2022-08-19T14:38:26;19.60;99.90
4433;DHT22;2229;48.708;9.706;2022-08-19T14:41:06;19.70;99.90
4433;DHT22;2229;48.708;9.706;2022-08-19T14:43:44;19.70;99.90
4433;DHT22;2229;48.708;9.706;2022-08-19T14:46:14;19.70;99.90
4433;DHT22;2229;48.708;9.706;2022-08-19T14:48:45;19.70;99.90
4433;DHT22;2229;48.708;9.706;2022-08-19T14:51:13;19.70;99.90
4433;DHT22;2229;48.708;9.706;2022-08-19T14:53:41;19.80;99.90
4433;DHT22;2229;48.708;9.706;2022-08-19T14:56:09;19.80;99.90
4433;DHT22;2229;48.708;9.706;2022-08-19T14:58:38;19.80;99.90
4433;DHT22;2229;48.708;9.706;2022-08-19T15:01:06;19.80;99.90
4433;DHT22;2229;48.708;9.706;2022-08-19T15:03:35;19.80;99.90
4433;DHT22;2229;48.708;9.706;2022-08-19T15:06:04;19.90;99.90
4433;DHT22;2229;48.708;9.706;2022-08-19T15:08:34;19.90;99.90
4433;DHT22;2229;48.708;9.706;2022-08-19T15:11:02;19.90;99.90
4433;DHT22;2229;48.708;9.706;2022-08-19T15:13:35;19.90;99.90
4433;DHT22;2229;48.708;9.706;2022-08-19T15:16:03;19.90;99.90
4433;DHT22;2229;48.708;9.706;2022-08-19T15:18:30;19.90;99.90
4433;DHT22;2229;48.708;9.706;2022-08-19T15:21:00;19.90;99.90
4433;DHT22;2229;48.708;9.706;2022-08-19T15:23:27;19.90;99.90
4433;DHT22;2229;48.708;9.706;2022-08-19T15:25:55;19.90;99.90
4433;DHT22;2229;48.708;9.706;2022-08-19T15:28:22;19.90;99.90
4433;DHT22;2229;48.708;9.706;2022-08-19T15:30:50;19.90;99.90
4433;DHT22;2229;48.708;9.706;2022-08-19T15:33:18;20.00;99.90
4433;DHT22;2229;48.708;9.706;2022-08-19T15:35:47;20.00;99.90
4433;DHT22;2229;48.708;9.706;2022-08-19T15:38:17;19.90;99.90
4433;DHT22;2229;48.708;9.706;2022-08-19T15:40:47;19.90;99.90
4433;DHT22;2229;48.708;9.706;2022-08-19T15:43:14;20.00;99.90
4433;DHT22;2229;48.708;9.706;2022-08-19T15:45:43;19.90;99.90
4433;DHT22;2229;48.708;9.706;2022-08-19T15:48:10;19.90;99.90
4433;DHT22;2229;48.708;9.706;2022-08-19T15:50:37;20.00;99.90
4433;DHT22;2229;48.708;9.706;2022-08-19T15:53:07;20.00;99.90
4433;DHT22;2229;48.708;9.706;2022-08-19T15:55:42;20.00;99.90
4433;DHT22;2229;48.708;9.706;2022-08-19T15:58:12;20.00;99.90
4433;DHT22;2229;48.708;9.706;2022-08-19T16:00:58;19.90;99.90
4433;DHT22;2229;48.708;9.706;2022-08-19T16:03:43;19.90;99.90
4433;DHT22;2229;48.708;9.706;2022-08-19T16:06:27;19.90;99.90
4433;DHT22;2229;48.708;9.706;2022-08-19T16:08:58;19.90;99.90
4433;DHT22;2229;48.708;9.706;2022-08-19T16:11:30;19.90;99.90
4433;DHT22;2229;48.708;9.706;2022-08-19T16:13:58;19.90;99.90
4433;DHT22;2229;48.708;9.706;2022-08-19T16:16:28;19.90;99.90
4433;DHT22;2229;48.708;9.706;2022-08-19T16:18:56;19.90;99.90
4433;DHT22;2229;48.708;9.706;2022-08-19T16:21:26;19.90;99.90